• Join FlightAware (Why Join?)
  • Login
  • US Flag 
09:26PM EDT


 

Airport Tracker/Info


-or-


 

Live Flight TrackerFlight Track Log ✈ EGF2958 ✈ 09-May-2013 ✈ KDFW - KSGF

Flight Track Log - Related Links

Times and Time Zones

All times are in EDT time to prevent confusion due to time zone crossing. See the EGF2958 flight status page for this flight to view local times or setup timezone preferences in your user account.

Time Position Orientation Groundspeed Altitude Reporting Facility
EDT Latitude Longitude Course Direction KTS MPH feet Rate Location/Type
06:03PM 32.8833 -97.0500 357° North 166 191 1,400  Level Dallas / Fort Worth TRACON
06:04PM 32.8167 -97.0667 192° South 199 229 4,100 2,280 Climbing Dallas / Fort Worth TRACON
06:05PM 32.8391 -96.8022 10° North  Level FlightAware Approximate
06:05PM 32.8000 -97.1333 253° West 221 254 6,500  Level Dallas / Fort Worth TRACON
06:06PM 32.9577 -96.8000 North  Level FlightAware Approximate
06:06PM 32.8000 -97.2167 270° West 261 300 8,400  Level Dallas / Fort Worth TRACON
06:07PM 33.0763 -96.8006 357° North  Level FlightAware Approximate
06:07PM 32.8603 -97.2575 330° Northwest 251 289 10,500  Level Fort Worth Center
06:08PM 33.1948 -96.8080 357° North  Level FlightAware Approximate
06:08PM 32.9375 -97.2425 North 267 307 11,600  Level Fort Worth Center
06:09PM 33.0147 -97.1781 35° Northeast 303 349 12,700 1,020 Climbing Fort Worth Center
06:10PM 33.1003 -97.1083 34° Northeast 347 399 13,700 1,140 Climbing Fort Worth Center
06:11PM 33.1878 -97.0386 34° Northeast 377 434 15,000 1,200 Climbing Fort Worth Center
06:12PM 33.2750 -96.9661 35° Northeast 384 442 16,100 1,140 Climbing Fort Worth Center
06:13PM 33.3689 -96.8936 33° Northeast 390 449 17,300 1,140 Climbing Fort Worth Center
06:14PM 33.4519 -96.8233 35° Northeast 396 456 18,400 1,140 Climbing Fort Worth Center
06:15PM 33.5581 -96.7553 28° Northeast 396 456 19,700 1,200 Climbing Fort Worth Center
06:16PM 33.6475 -96.6972 28° Northeast 396 456 20,800 1,080 Climbing Fort Worth Center
06:17PM 33.7619 -96.6239 28° Northeast 402 463 22,100 1,200 Climbing Fort Worth Center
06:18PM 33.8825 -96.5453 28° Northeast 413 475 23,500 1,260 Climbing Fort Worth Center
06:19PM 33.9861 -96.4792 28° Northeast 413 475 24,700 1,200 Climbing Fort Worth Center
06:20PM 34.0922 -96.4078 29° Northeast 413 475 25,900 1,200 Climbing Fort Worth Center
06:21PM 34.1936 -96.3239 34° Northeast 423 487 27,100 1,140 Climbing Fort Worth Center
06:22PM 34.2953 -96.2394 34° Northeast 433 498 28,200 1,140 Climbing Fort Worth Center
06:23PM 34.3944 -96.1578 34° Northeast 438 504 29,400 1,140 Climbing Fort Worth Center
06:24PM 34.4939 -96.0756 34° Northeast 438 504 30,500 780 Climbing Fort Worth Center
06:25PM 34.5972 -95.9883 35° Northeast 438 504 31,000 240 Climbing Fort Worth Center
06:26PM 34.7047 -95.8981 35° Northeast 444 511 31,000  Level Fort Worth Center
06:27PM 34.8161 -95.8075 34° Northeast 463 533 31,000  Level Fort Worth Center
06:28PM 34.9275 -95.7117 35° Northeast 475 547 31,000  Level Fort Worth Center
06:29PM 35.0392 -95.6308 31° Northeast 480 552 31,000  Level Fort Worth Center
06:30PM 35.1547 -95.5572 28° Northeast 470 541 31,000  Level Fort Worth Center
06:31PM 35.2683 -95.4761 30° Northeast 464 534 31,000  Level Fort Worth Center
06:32PM 35.3836 -95.3919 31° Northeast 464 534 31,000  Level Fort Worth Center
06:33PM 35.4669 -95.3381 28° Northeast 471 542 31,000  Level Memphis Center
06:35PM 35.6661 -95.1914 31° Northeast 493 567 31,000  Level Kansas City Center
06:36PM 35.7875 -95.1072 29° Northeast 498 573 31,000 -480 Level Kansas City Center
06:37PM 35.9083 -95.0206 30° Northeast 503 579 30,100 -1,560 Descending Kansas City Center
06:38PM 36.0231 -94.9353 31° Northeast 493 567 27,800 -2,460 Descending Kansas City Center
06:39PM 36.1500 -94.8356 32° Northeast 464 534 25,100 -1,800 Descending Kansas City Center
06:40PM 36.2514 -94.7600 31° Northeast 440 506 24,100 -540 Descending Kansas City Center
06:41PM 36.3594 -94.6878 28° Northeast 439 505 24,000 -60 Descending Kansas City Center
06:42PM 36.4739 -94.6278 23° Northeast 446 513 24,000 -60 Level Kansas City Center
06:43PM 36.5733 -94.5608 28° Northeast 425 489 23,900 -1,080 Descending Kansas City Center
06:44PM 36.6569 -94.4147 54° Northeast 436 502 21,800 -2,460 Descending Kansas City Center
06:45PM 36.7350 -94.3067 48° Northeast 426 490 18,900 -2,520 Descending Kansas City Center
06:46PM 36.7986 -94.1903 56° Northeast 412 474 16,700 -2,220 Descending Kansas City Center
06:47PM 36.8581 -94.0839 55° Northeast 383 441 14,400 -2,280 Descending Kansas City Center
06:48PM 36.9208 -93.9797 53° Northeast 377 434 12,000 -1,800 Descending Kansas City Center
06:49PM 36.9744 -93.8853 55° Northeast 342 394 10,800 -1,500 Descending Kansas City Center
06:50PM 37.0322 -93.7803 55° Northeast 310 357 8,900 -1,680 Descending Kansas City Center
06:51PM 37.0747 -93.7014 56° Northeast 296 341 7,400 -1,560 Descending Kansas City Center
06:52PM 37.1211 -93.6194 55° Northeast 290 334 5,700 -1,620 Descending Kansas City Center
06:53PM 37.1856 -93.5639 34° Northeast 285 328 4,100 -1,560 Descending Kansas City Center